Bugul'Ma, Russia
Current Conditions -  °F | °C
As of 1:00 PM on Friday 31 Oct 2014 (Local Time) from UWKE Reporting Station
Scattered Clouds Scattered Clouds  
Wind Chill: 34°   Ceiling: Unl
Heat Index: 43°   Visibility: 4mi
Dew Point: 39°   Wind: 22mph
Humidity: 87%   Direction: 200°SSW
Pressure: 29.97"   Gusts: 29mph
Location:  54.5°N, 52.87°E
Report Text: UWKE 311000Z 20010G13MPS 7000 SCT012 06/04 Q1015 NOSIG RMK QFE744/0993 21210355
Loading
Personal Weather Stations






























Interactive Weather Map
Tropical Storm Tracking
New forecast layout! Learn more

10-Day Weather Forecast

Advertisements
Track Severe Weather on mobile